sensor_id;sensor_type;location;lat;lon;timestamp;pressure;altitude;pressure_sealevel;temperature;humidity
57610;BME280;43435;46.186;9.024;2023-10-08T10:11:13;99477.66;;;21.84;50.95
57610;BME280;43435;46.186;9.024;2023-10-08T10:13:42;99467.16;;;22.15;53.50
57610;BME280;43435;46.186;9.024;2023-10-08T10:16:09;99472.13;;;22.01;53.95
57610;BME280;43435;46.186;9.024;2023-10-08T10:18:35;99464.00;;;22.01;54.81
57610;BME280;43435;46.186;9.024;2023-10-08T10:21:01;99462.22;;;22.12;52.15
57610;BME280;43435;46.186;9.024;2023-10-08T10:23:45;99460.56;;;22.11;54.01
57610;BME280;43435;46.186;9.024;2023-10-08T10:31:32;99456.50;;;22.67;52.88
57610;BME280;43435;46.186;9.024;2023-10-08T10:34:03;99450.31;;;22.77;51.98
57610;BME280;43435;46.186;9.024;2023-10-08T10:36:29;99450.75;;;22.96;48.72
57610;BME280;43435;46.186;9.024;2023-10-08T10:38:56;99452.31;;;22.87;47.62
57610;BME280;43435;46.186;9.024;2023-10-08T10:41:21;99446.31;;;22.90;47.14
57610;BME280;43435;46.186;9.024;2023-10-08T10:43:47;99438.03;;;23.02;46.74
57610;BME280;43435;46.186;9.024;2023-10-08T10:46:17;99435.03;;;23.03;47.41
57610;BME280;43435;46.186;9.024;2023-10-08T10:48:56;99437.16;;;22.96;47.24
57610;BME280;43435;46.186;9.024;2023-10-08T10:51:41;99429.22;;;23.32;43.83
57610;BME280;43435;46.186;9.024;2023-10-08T10:54:06;99418.78;;;23.13;43.16
57610;BME280;43435;46.186;9.024;2023-10-08T10:56:35;99421.50;;;23.13;48.45
57610;BME280;43435;46.186;9.024;2023-10-08T10:59:07;99418.28;;;23.22;49.75
57610;BME280;43435;46.186;9.024;2023-10-08T11:01:48;99417.19;;;23.23;50.51
57610;BME280;43435;46.186;9.024;2023-10-08T11:04:18;99412.31;;;23.25;50.85
57610;BME280;43435;46.186;9.024;2023-10-08T11:06:45;99407.41;;;23.27;50.60
57610;BME280;43435;46.186;9.024;2023-10-08T11:09:11;99406.06;;;23.29;48.53
57610;BME280;43435;46.186;9.024;2023-10-08T11:11:44;99406.91;;;23.35;49.24
57610;BME280;43435;46.186;9.024;2023-10-08T11:14:13;99398.75;;;23.40;47.91
57610;BME280;43435;46.186;9.024;2023-10-08T11:16:44;99395.03;;;23.61;44.27
57610;BME280;43435;46.186;9.024;2023-10-08T11:19:09;99388.03;;;23.76;43.16
57610;BME280;43435;46.186;9.024;2023-10-08T11:21:50;99377.06;;;23.66;42.84
57610;BME280;43435;46.186;9.024;2023-10-08T11:24:26;99380.41;;;23.73;44.98
57610;BME280;43435;46.186;9.024;2023-10-08T11:26:54;99382.06;;;23.94;45.90
57610;BME280;43435;46.186;9.024;2023-10-08T11:29:31;99378.53;;;23.99;46.13
57610;BME280;43435;46.186;9.024;2023-10-08T11:31:57;99372.28;;;23.98;46.37
57610;BME280;43435;46.186;9.024;2023-10-08T11:34:31;99367.34;;;23.95;46.78
57610;BME280;43435;46.186;9.024;2023-10-08T11:37:03;99358.66;;;24.03;47.66
57610;BME280;43435;46.186;9.024;2023-10-08T11:39:38;99361.94;;;24.05;46.94
57610;BME280;43435;46.186;9.024;2023-10-08T11:42:10;99353.75;;;24.10;47.18
57610;BME280;43435;46.186;9.024;2023-10-08T11:44:53;99354.84;;;24.20;48.48
57610;BME280;43435;46.186;9.024;2023-10-08T11:47:19;99348.31;;;24.31;46.35
57610;BME280;43435;46.186;9.024;2023-10-08T11:49:46;99337.63;;;24.70;42.13
57610;BME280;43435;46.186;9.024;2023-10-08T11:52:34;99345.59;;;24.46;42.55
57610;BME280;43435;46.186;9.024;2023-10-08T11:55:01;99345.56;;;24.36;42.94
57610;BME280;43435;46.186;9.024;2023-10-08T11:57:26;99333.84;;;24.35;41.81
57610;BME280;43435;46.186;9.024;2023-10-08T11:59:52;99340.13;;;24.36;42.32
57610;BME280;43435;46.186;9.024;2023-10-08T12:02:19;99328.66;;;24.70;40.30
57610;BME280;43435;46.186;9.024;2023-10-08T12:04:45;99313.13;;;24.65;40.35
57610;BME280;43435;46.186;9.024;2023-10-08T12:07:12;99318.34;;;24.56;40.50
57610;BME280;43435;46.186;9.024;2023-10-08T12:09:42;99310.94;;;24.72;38.58
57610;BME280;43435;46.186;9.024;2023-10-08T12:12:07;99302.78;;;24.67;38.05
57610;BME280;43435;46.186;9.024;2023-10-08T12:14:34;99302.16;;;24.80;37.92
57610;BME280;43435;46.186;9.024;2023-10-08T12:17:00;99304.38;;;24.78;39.14
57610;BME280;43435;46.186;9.024;2023-10-08T12:19:25;99295.31;;;24.88;38.45
57610;BME280;43435;46.186;9.024;2023-10-08T12:21:51;99288.25;;;24.87;37.82
57610;BME280;43435;46.186;9.024;2023-10-08T12:24:18;99291.50;;;24.84;38.49
57610;BME280;43435;46.186;9.024;2023-10-08T12:26:44;99286.31;;;24.88;38.98
57610;BME280;43435;46.186;9.024;2023-10-08T12:29:14;99278.97;;;24.83;39.18
57610;BME280;43435;46.186;9.024;2023-10-08T12:31:42;99275.69;;;24.81;38.16
57610;BME280;43435;46.186;9.024;2023-10-08T12:34:11;99278.44;;;24.86;38.99
57610;BME280;43435;46.186;9.024;2023-10-08T12:36:37;99271.84;;;24.92;39.30
57610;BME280;43435;46.186;9.024;2023-10-08T12:39:02;99270.69;;;25.03;39.24
57610;BME280;43435;46.186;9.024;2023-10-08T12:41:41;99268.25;;;25.02;39.00
57610;BME280;43435;46.186;9.024;2023-10-08T12:44:06;99269.06;;;25.08;40.82
57610;BME280;43435;46.186;9.024;2023-10-08T12:46:34;99263.56;;;25.18;40.01
57610;BME280;43435;46.186;9.024;2023-10-08T12:49:00;99252.59;;;25.28;39.41
57610;BME280;43435;46.186;9.024;2023-10-08T12:51:26;99257.47;;;25.36;40.22
57610;BME280;43435;46.186;9.024;2023-10-08T12:53:56;99252.00;;;25.36;40.99
57610;BME280;43435;46.186;9.024;2023-10-08T12:56:29;99254.41;;;25.43;42.74
57610;BME280;43435;46.186;9.024;2023-10-08T12:59:01;99238.84;;;25.43;42.85
57610;BME280;43435;46.186;9.024;2023-10-08T13:01:29;99248.91;;;25.48;42.77
57610;BME280;43435;46.186;9.024;2023-10-08T13:03:54;99248.66;;;25.49;40.79
57610;BME280;43435;46.186;9.024;2023-10-08T13:06:25;99241.69;;;25.67;41.96
57610;BME280;43435;46.186;9.024;2023-10-08T13:08:57;99244.56;;;25.86;42.33
57610;BME280;43435;46.186;9.024;2023-10-08T13:11:24;99242.81;;;26.00;40.65
57610;BME280;43435;46.186;9.024;2023-10-08T13:13:50;99236.72;;;26.09;40.42
57610;BME280;43435;46.186;9.024;2023-10-08T13:16:15;99232.84;;;26.15;41.82
57610;BME280;43435;46.186;9.024;2023-10-08T13:18:40;99232.47;;;26.21;43.04
57610;BME280;43435;46.186;9.024;2023-10-08T13:21:08;99233.31;;;26.22;42.34
57610;BME280;43435;46.186;9.024;2023-10-08T13:23:34;99230.63;;;26.17;41.88
57610;BME280;43435;46.186;9.024;2023-10-08T13:26:00;99231.72;;;26.16;40.96
57610;BME280;43435;46.186;9.024;2023-10-08T13:28:29;99227.84;;;26.22;42.99
57610;BME280;43435;46.186;9.024;2023-10-08T13:30:55;99226.69;;;26.28;42.79
57610;BME280;43435;46.186;9.024;2023-10-08T13:33:20;99222.25;;;26.32;43.77
57610;BME280;43435;46.186;9.024;2023-10-08T13:35:47;99218.44;;;26.33;43.07
57610;BME280;43435;46.186;9.024;2023-10-08T13:38:15;99217.50;;;26.43;44.88
57610;BME280;43435;46.186;9.024;2023-10-08T13:40:41;99224.75;;;26.58;44.70
57610;BME280;43435;46.186;9.024;2023-10-08T13:43:11;99216.72;;;26.66;43.43
57610;BME280;43435;46.186;9.024;2023-10-08T13:45:37;99213.31;;;26.74;42.96
57610;BME280;43435;46.186;9.024;2023-10-08T13:48:04;99203.44;;;26.97;41.97
57610;BME280;43435;46.186;9.024;2023-10-08T13:50:30;99203.16;;;26.99;42.79
57610;BME280;43435;46.186;9.024;2023-10-08T13:52:55;99206.31;;;27.11;43.74
57610;BME280;43435;46.186;9.024;2023-10-08T13:55:21;99199.13;;;27.15;42.36
57610;BME280;43435;46.186;9.024;2023-10-08T13:57:50;99197.78;;;27.13;41.95
57610;BME280;43435;46.186;9.024;2023-10-08T14:00:15;99202.75;;;27.30;42.87
57610;BME280;43435;46.186;9.024;2023-10-08T14:02:41;99199.25;;;27.43;43.10
57610;BME280;43435;46.186;9.024;2023-10-08T14:05:07;99201.84;;;27.34;42.90
57610;BME280;43435;46.186;9.024;2023-10-08T14:07:34;99206.66;;;27.42;41.96
57610;BME280;43435;46.186;9.024;2023-10-08T14:10:00;99193.53;;;27.39;42.63
57610;BME280;43435;46.186;9.024;2023-10-08T14:12:32;99198.59;;;27.51;40.97
57610;BME280;43435;46.186;9.024;2023-10-08T14:15:00;99201.66;;;27.63;40.14
57610;BME280;43435;46.186;9.024;2023-10-08T14:17:30;99203.97;;;27.75;41.00
57610;BME280;43435;46.186;9.024;2023-10-08T14:20:07;99200.69;;;27.73;42.29
57610;BME280;43435;46.186;9.024;2023-10-08T14:22:38;99198.22;;;27.72;43.46
57610;BME280;43435;46.186;9.024;2023-10-08T14:25:03;99198.03;;;27.68;41.77
57610;BME280;43435;46.186;9.024;2023-10-08T14:27:36;99203.69;;;27.90;40.38
57610;BME280;43435;46.186;9.024;2023-10-08T14:30:07;99206.03;;;27.97;40.89
57610;BME280;43435;46.186;9.024;2023-10-08T14:32:40;99200.78;;;28.01;43.21
57610;BME280;43435;46.186;9.024;2023-10-08T14:35:10;99201.59;;;28.01;43.64
57610;BME280;43435;46.186;9.024;2023-10-08T14:37:54;99201.09;;;28.13;43.91
57610;BME280;43435;46.186;9.024;2023-10-08T14:40:38;99208.81;;;28.11;44.26
57610;BME280;43435;46.186;9.024;2023-10-08T14:43:22;99201.63;;;28.15;43.35
57610;BME280;43435;46.186;9.024;2023-10-08T14:45:49;99206.69;;;28.08;43.29
57610;BME280;43435;46.186;9.024;2023-10-08T14:48:14;99202.22;;;28.12;44.43
57610;BME280;43435;46.186;9.024;2023-10-08T14:50:39;99204.25;;;28.06;45.11
57610;BME280;43435;46.186;9.024;2023-10-08T14:53:05;99206.53;;;28.32;45.54
57610;BME280;43435;46.186;9.024;2023-10-08T14:55:31;99209.88;;;28.29;45.43
57610;BME280;43435;46.186;9.024;2023-10-08T14:57:59;99209.13;;;28.23;46.38
57610;BME280;43435;46.186;9.024;2023-10-08T15:00:31;99201.72;;;28.24;46.59
57610;BME280;43435;46.186;9.024;2023-10-08T15:02:56;99203.44;;;28.20;47.18
57610;BME280;43435;46.186;9.024;2023-10-08T15:05:23;99207.50;;;28.22;47.13
57610;BME280;43435;46.186;9.024;2023-10-08T15:07:49;99208.94;;;28.20;47.39
57610;BME280;43435;46.186;9.024;2023-10-08T15:10:14;99209.44;;;28.22;47.94
57610;BME280;43435;46.186;9.024;2023-10-08T15:12:39;99216.44;;;28.14;48.31
57610;BME280;43435;46.186;9.024;2023-10-08T15:28:00;99219.72;;;27.83;48.84
57610;BME280;43435;46.186;9.024;2023-10-08T15:30:26;99216.97;;;27.83;48.89
57610;BME280;43435;46.186;9.024;2023-10-08T15:32:51;99229.56;;;27.84;49.20
57610;BME280;43435;46.186;9.024;2023-10-08T15:35:18;99228.84;;;27.79;49.22
57610;BME280;43435;46.186;9.024;2023-10-08T15:37:49;99223.41;;;27.74;49.19
57610;BME280;43435;46.186;9.024;2023-10-08T15:40:14;99233.78;;;27.58;49.47
57610;BME280;43435;46.186;9.024;2023-10-08T15:42:43;99236.50;;;27.44;49.63
57610;BME280;43435;46.186;9.024;2023-10-08T15:45:08;99232.41;;;27.41;49.37
57610;BME280;43435;46.186;9.024;2023-10-08T15:47:37;99241.44;;;27.42;49.82
57610;BME280;43435;46.186;9.024;2023-10-08T15:50:02;99249.78;;;27.13;50.19
57610;BME280;43435;46.186;9.024;2023-10-08T15:52:27;99245.97;;;26.90;49.95
57610;BME280;43435;46.186;9.024;2023-10-08T15:54:53;99250.25;;;26.77;49.90
57610;BME280;43435;46.186;9.024;2023-10-08T15:57:18;99253.56;;;26.74;50.52
